sensor_id;sensor_type;location;lat;lon;timestamp;pressure;altitude;pressure_sealevel;temperature;humidity
74228;BME280;62587;52.352;5.006;2022-12-18T00:02:02;102706.59;;;20.36;33.38
74228;BME280;62587;52.352;5.006;2022-12-18T00:04:27;102700.34;;;20.37;33.22
74228;BME280;62587;52.352;5.006;2022-12-18T00:06:53;102707.50;;;20.35;33.54
74228;BME280;62587;52.352;5.006;2022-12-18T00:09:19;102702.19;;;20.35;33.43
74228;BME280;62587;52.352;5.006;2022-12-18T00:11:45;102708.47;;;20.34;33.18
74228;BME280;62587;52.352;5.006;2022-12-18T00:14:12;102698.75;;;20.33;33.43
74228;BME280;62587;52.352;5.006;2022-12-18T00:16:37;102696.19;;;20.30;33.20
74228;BME280;62587;52.352;5.006;2022-12-18T00:19:04;102706.78;;;20.32;33.43
74228;BME280;62587;52.352;5.006;2022-12-18T00:21:31;102695.28;;;20.31;33.00
74228;BME280;62587;52.352;5.006;2022-12-18T00:23:57;102706.84;;;20.30;33.19
74228;BME280;62587;52.352;5.006;2022-12-18T00:26:28;102705.13;;;20.29;33.54
74228;BME280;62587;52.352;5.006;2022-12-18T00:28:54;102695.66;;;20.22;33.74
74228;BME280;62587;52.352;5.006;2022-12-18T00:31:22;102696.66;;;20.18;33.45
74228;BME280;62587;52.352;5.006;2022-12-18T00:33:49;102692.00;;;20.25;33.24
74228;BME280;62587;52.352;5.006;2022-12-18T00:36:17;102685.91;;;20.23;33.58
74228;BME280;62587;52.352;5.006;2022-12-18T00:38:44;102683.16;;;20.24;33.08
74228;BME280;62587;52.352;5.006;2022-12-18T00:41:11;102687.59;;;20.24;33.24
74228;BME280;62587;52.352;5.006;2022-12-18T00:43:37;102699.03;;;20.26;32.98
74228;BME280;62587;52.352;5.006;2022-12-18T00:46:03;102700.00;;;20.25;33.20
74228;BME280;62587;52.352;5.006;2022-12-18T00:48:29;102701.78;;;20.24;33.00
74228;BME280;62587;52.352;5.006;2022-12-18T00:50:54;102699.13;;;20.24;32.97
74228;BME280;62587;52.352;5.006;2022-12-18T00:53:20;102700.91;;;20.24;32.99
74228;BME280;62587;52.352;5.006;2022-12-18T00:55:46;102696.53;;;20.21;33.08
74228;BME280;62587;52.352;5.006;2022-12-18T00:58:12;102690.34;;;20.22;33.05
74228;BME280;62587;52.352;5.006;2022-12-18T01:00:38;102691.22;;;20.21;33.34
74228;BME280;62587;52.352;5.006;2022-12-18T01:03:04;102691.34;;;20.18;33.08
74228;BME280;62587;52.352;5.006;2022-12-18T01:05:29;102691.34;;;20.18;32.82
74228;BME280;62587;52.352;5.006;2022-12-18T01:07:55;102701.13;;;20.18;33.19
74228;BME280;62587;52.352;5.006;2022-12-18T01:10:21;102706.47;;;20.18;33.29
74228;BME280;62587;52.352;5.006;2022-12-18T01:12:47;102690.53;;;20.16;33.12
74228;BME280;62587;52.352;5.006;2022-12-18T01:15:14;102694.06;;;20.17;32.82
74228;BME280;62587;52.352;5.006;2022-12-18T01:17:39;102696.72;;;20.17;33.03
74228;BME280;62587;52.352;5.006;2022-12-18T01:20:05;102696.84;;;20.14;32.82
74228;BME280;62587;52.352;5.006;2022-12-18T01:22:31;102686.22;;;20.14;33.12
74228;BME280;62587;52.352;5.006;2022-12-18T01:24:59;102677.44;;;20.12;32.96
74228;BME280;62587;52.352;5.006;2022-12-18T01:27:24;102688.94;;;20.12;32.71
74228;BME280;62587;52.352;5.006;2022-12-18T01:29:50;102696.13;;;20.10;33.10
74228;BME280;62587;52.352;5.006;2022-12-18T01:32:15;102705.88;;;20.10;32.73
74228;BME280;62587;52.352;5.006;2022-12-18T01:34:40;102703.22;;;20.10;32.80
74228;BME280;62587;52.352;5.006;2022-12-18T01:37:06;102705.00;;;20.09;32.79
74228;BME280;62587;52.352;5.006;2022-12-18T01:39:31;102701.44;;;20.10;32.95
74228;BME280;62587;52.352;5.006;2022-12-18T01:42:19;102707.75;;;20.08;33.07
74228;BME280;62587;52.352;5.006;2022-12-18T01:45:00;102712.19;;;20.07;32.97
74228;BME280;62587;52.352;5.006;2022-12-18T01:47:30;102711.28;;;20.08;32.71
74228;BME280;62587;52.352;5.006;2022-12-18T01:50:00;102712.31;;;20.04;33.02
74228;BME280;62587;52.352;5.006;2022-12-18T01:52:28;102723.75;;;20.06;32.57
74228;BME280;62587;52.352;5.006;2022-12-18T01:54:54;102718.50;;;20.04;33.09
74228;BME280;62587;52.352;5.006;2022-12-18T01:57:20;102734.44;;;20.04;32.67
74228;BME280;62587;52.352;5.006;2022-12-18T01:59:51;102729.19;;;20.03;32.77
74228;BME280;62587;52.352;5.006;2022-12-18T02:02:20;102724.06;;;19.98;32.68
74228;BME280;62587;52.352;5.006;2022-12-18T02:04:45;102742.91;;;19.92;32.70
74228;BME280;62587;52.352;5.006;2022-12-18T02:07:27;102752.56;;;19.95;33.21
74228;BME280;62587;52.352;5.006;2022-12-18T02:10:02;102749.81;;;19.96;33.01
74228;BME280;62587;52.352;5.006;2022-12-18T02:13:06;102755.09;;;19.98;32.86
74228;BME280;62587;52.352;5.006;2022-12-18T02:15:40;102756.97;;;19.96;33.03
74228;BME280;62587;52.352;5.006;2022-12-18T02:18:14;102762.59;;;19.87;33.25
74228;BME280;62587;52.352;5.006;2022-12-18T02:20:58;102757.94;;;19.93;33.29
74228;BME280;62587;52.352;5.006;2022-12-18T02:26:05;102758.13;;;19.89;34.76
74228;BME280;62587;52.352;5.006;2022-12-18T02:28:42;102749.03;;;19.71;34.77
74228;BME280;62587;52.352;5.006;2022-12-18T02:31:11;102741.88;;;19.73;34.08
74228;BME280;62587;52.352;5.006;2022-12-18T02:33:40;102743.53;;;19.76;34.21
74228;BME280;62587;52.352;5.006;2022-12-18T02:36:08;102734.53;;;19.80;34.84
74228;BME280;62587;52.352;5.006;2022-12-18T02:38:34;102725.53;;;19.84;34.37
74228;BME280;62587;52.352;5.006;2022-12-18T02:41:00;102720.13;;;19.85;34.94
74228;BME280;62587;52.352;5.006;2022-12-18T02:43:26;102710.28;;;19.89;34.53
74228;BME280;62587;52.352;5.006;2022-12-18T02:45:57;102706.63;;;19.91;34.62
74228;BME280;62587;52.352;5.006;2022-12-18T02:48:29;102704.81;;;19.92;34.98
74228;BME280;62587;52.352;5.006;2022-12-18T02:53:36;102698.56;;;19.93;34.70
74228;BME280;62587;52.352;5.006;2022-12-18T02:56:27;102701.94;;;19.98;35.14
74228;BME280;62587;52.352;5.006;2022-12-18T02:59:04;102696.53;;;19.99;37.20
74228;BME280;62587;52.352;5.006;2022-12-18T03:01:54;102692.88;;;20.02;37.41
74228;BME280;62587;52.352;5.006;2022-12-18T03:04:42;102694.63;;;20.03;38.93
74228;BME280;62587;52.352;5.006;2022-12-18T03:07:15;102695.47;;;20.03;40.30
74228;BME280;62587;52.352;5.006;2022-12-18T03:09:44;102699.81;;;20.06;41.00
74228;BME280;62587;52.352;5.006;2022-12-18T03:12:18;102692.78;;;20.05;40.91
74228;BME280;62587;52.352;5.006;2022-12-18T03:17:23;102691.84;;;20.06;42.13
74228;BME280;62587;52.352;5.006;2022-12-18T03:19:51;102691.00;;;20.05;41.76
74228;BME280;62587;52.352;5.006;2022-12-18T03:22:18;102691.00;;;20.05;41.95
74228;BME280;62587;52.352;5.006;2022-12-18T03:24:46;102691.03;;;20.04;41.79
74228;BME280;62587;52.352;5.006;2022-12-18T03:27:15;102677.81;;;20.02;41.99
74228;BME280;62587;52.352;5.006;2022-12-18T03:29:52;102683.13;;;20.02;42.24
74228;BME280;62587;52.352;5.006;2022-12-18T03:32:26;102674.34;;;20.00;41.89
74228;BME280;62587;52.352;5.006;2022-12-18T03:34:55;102677.06;;;19.99;42.26
74228;BME280;62587;52.352;5.006;2022-12-18T03:37:23;102675.25;;;19.99;42.26
74228;BME280;62587;52.352;5.006;2022-12-18T03:39:49;102660.41;;;19.94;41.83
74228;BME280;62587;52.352;5.006;2022-12-18T03:42:23;102670.94;;;19.97;42.01
74228;BME280;62587;52.352;5.006;2022-12-18T03:45:00;102664.75;;;19.96;41.97
74228;BME280;62587;52.352;5.006;2022-12-18T03:50:22;102663.06;;;19.94;41.93
74228;BME280;62587;52.352;5.006;2022-12-18T03:52:53;102656.91;;;19.93;41.89
74228;BME280;62587;52.352;5.006;2022-12-18T03:55:23;102654.25;;;19.93;41.66
74228;BME280;62587;52.352;5.006;2022-12-18T03:57:51;102662.22;;;19.93;41.74
74228;BME280;62587;52.352;5.006;2022-12-18T04:00:18;102660.47;;;19.92;41.25
74228;BME280;62587;52.352;5.006;2022-12-18T04:02:55;102667.59;;;19.92;41.11
74228;BME280;62587;52.352;5.006;2022-12-18T04:05:22;102650.03;;;19.88;41.71
74228;BME280;62587;52.352;5.006;2022-12-18T04:07:50;102642.94;;;19.88;41.49
74228;BME280;62587;52.352;5.006;2022-12-18T04:10:17;102645.63;;;19.87;41.23
74228;BME280;62587;52.352;5.006;2022-12-18T04:12:43;102644.84;;;19.85;41.22
74228;BME280;62587;52.352;5.006;2022-12-18T04:15:09;102636.94;;;19.83;40.88
74228;BME280;62587;52.352;5.006;2022-12-18T04:17:35;102641.38;;;19.83;41.23
74228;BME280;62587;52.352;5.006;2022-12-18T04:20:00;102629.03;;;19.82;40.99
74228;BME280;62587;52.352;5.006;2022-12-18T04:22:26;102631.72;;;19.80;40.86
74228;BME280;62587;52.352;5.006;2022-12-18T04:24:51;102636.19;;;19.80;40.90
74228;BME280;62587;52.352;5.006;2022-12-18T04:27:16;102638.00;;;19.79;40.50
74228;BME280;62587;52.352;5.006;2022-12-18T04:29:42;102641.56;;;19.78;40.81
74228;BME280;62587;52.352;5.006;2022-12-18T04:32:07;102643.44;;;19.76;40.38
74228;BME280;62587;52.352;5.006;2022-12-18T04:34:33;102644.28;;;19.77;40.31
74228;BME280;62587;52.352;5.006;2022-12-18T04:36:58;102647.00;;;19.75;40.23
74228;BME280;62587;52.352;5.006;2022-12-18T04:39:23;102659.41;;;19.75;40.17
74228;BME280;62587;52.352;5.006;2022-12-18T04:41:49;102665.66;;;19.74;39.86
74228;BME280;62587;52.352;5.006;2022-12-18T04:44:14;102663.09;;;19.72;40.11
74228;BME280;62587;52.352;5.006;2022-12-18T04:46:39;102663.94;;;19.73;40.02
74228;BME280;62587;52.352;5.006;2022-12-18T04:49:05;102660.47;;;19.71;39.62
74228;BME280;62587;52.352;5.006;2022-12-18T04:51:30;102666.72;;;19.70;39.78
74228;BME280;62587;52.352;5.006;2022-12-18T04:53:56;102669.53;;;19.65;40.02
74228;BME280;62587;52.352;5.006;2022-12-18T04:56:21;102691.66;;;19.66;39.77
74228;BME280;62587;52.352;5.006;2022-12-18T04:58:47;102689.06;;;19.64;40.09
74228;BME280;62587;52.352;5.006;2022-12-18T05:01:13;102692.59;;;19.65;39.84
74228;BME280;62587;52.352;5.006;2022-12-18T05:03:39;102694.56;;;19.60;40.08
74228;BME280;62587;52.352;5.006;2022-12-18T05:06:06;102704.41;;;19.58;39.89
74228;BME280;62587;52.352;5.006;2022-12-18T05:08:31;102695.47;;;19.59;40.02
74228;BME280;62587;52.352;5.006;2022-12-18T05:11:08;102698.22;;;19.57;40.00
74228;BME280;62587;52.352;5.006;2022-12-18T05:13:34;102691.22;;;19.55;39.98
74228;BME280;62587;52.352;5.006;2022-12-18T05:16:00;102689.28;;;19.58;39.50
74228;BME280;62587;52.352;5.006;2022-12-18T05:18:26;102690.34;;;19.54;39.47
74228;BME280;62587;52.352;5.006;2022-12-18T05:20:52;102697.41;;;19.55;39.30
74228;BME280;62587;52.352;5.006;2022-12-18T05:23:19;102706.34;;;19.53;39.63
74228;BME280;62587;52.352;5.006;2022-12-18T05:26:04;102706.38;;;19.51;39.40
74228;BME280;62587;52.352;5.006;2022-12-18T05:28:33;102705.56;;;19.51;39.41
74228;BME280;62587;52.352;5.006;2022-12-18T05:31:00;102708.22;;;19.51;39.33
74228;BME280;62587;52.352;5.006;2022-12-18T05:33:28;102702.94;;;19.49;39.19
74228;BME280;62587;52.352;5.006;2022-12-18T05:35:56;102697.69;;;19.48;39.03
74228;BME280;62587;52.352;5.006;2022-12-18T05:38:23;102695.94;;;19.47;39.29
74228;BME280;62587;52.352;5.006;2022-12-18T05:40:50;102687.09;;;19.46;38.97
74228;BME280;62587;52.352;5.006;2022-12-18T05:43:16;102680.97;;;19.44;39.42
74228;BME280;62587;52.352;5.006;2022-12-18T05:45:42;102678.41;;;19.43;39.30
74228;BME280;62587;52.352;5.006;2022-12-18T05:48:08;102680.97;;;19.44;38.60
74228;BME280;62587;52.352;5.006;2022-12-18T05:50:35;102679.28;;;19.43;39.24
74228;BME280;62587;52.352;5.006;2022-12-18T05:53:02;102672.13;;;19.44;38.51
74228;BME280;62587;52.352;5.006;2022-12-18T05:55:27;102669.47;;;19.44;38.87
74228;BME280;62587;52.352;5.006;2022-12-18T05:57:53;102674.88;;;19.42;38.80
74228;BME280;62587;52.352;5.006;2022-12-18T06:00:18;102670.44;;;19.43;38.54
74228;BME280;62587;52.352;5.006;2022-12-18T06:02:47;102668.81;;;19.38;38.86
74228;BME280;62587;52.352;5.006;2022-12-18T06:05:12;102665.22;;;19.39;39.01
74228;BME280;62587;52.352;5.006;2022-12-18T06:07:37;102659.09;;;19.37;39.03
74228;BME280;62587;52.352;5.006;2022-12-18T06:10:03;102666.16;;;19.38;38.45
74228;BME280;62587;52.352;5.006;2022-12-18T06:12:28;102660.84;;;19.38;38.71
74228;BME280;62587;52.352;5.006;2022-12-18T06:14:54;102656.44;;;19.37;38.34
74228;BME280;62587;52.352;5.006;2022-12-18T06:17:19;102669.72;;;19.37;38.23
74228;BME280;62587;52.352;5.006;2022-12-18T06:19:44;102673.28;;;19.36;38.60
74228;BME280;62587;52.352;5.006;2022-12-18T06:22:10;102667.13;;;19.36;38.33
74228;BME280;62587;52.352;5.006;2022-12-18T06:24:35;102664.50;;;19.36;38.54
74228;BME280;62587;52.352;5.006;2022-12-18T06:27:01;102662.66;;;19.36;38.48
74228;BME280;62587;52.352;5.006;2022-12-18T06:29:26;102660.97;;;19.34;38.14
74228;BME280;62587;52.352;5.006;2022-12-18T06:31:51;102652.19;;;19.32;38.42
74228;BME280;62587;52.352;5.006;2022-12-18T06:34:16;102644.19;;;19.33;37.92
74228;BME280;62587;52.352;5.006;2022-12-18T06:36:42;102637.06;;;19.34;38.08
74228;BME280;62587;52.352;5.006;2022-12-18T06:39:07;102634.47;;;19.32;38.19
74228;BME280;62587;52.352;5.006;2022-12-18T06:41:33;102615.88;;;19.32;38.40
74228;BME280;62587;52.352;5.006;2022-12-18T06:43:58;102610.56;;;19.32;38.08
74228;BME280;62587;52.352;5.006;2022-12-18T06:46:23;102602.66;;;19.31;38.37
74228;BME280;62587;52.352;5.006;2022-12-18T06:48:49;102602.66;;;19.31;38.11
74228;BME280;62587;52.352;5.006;2022-12-18T06:51:20;102597.41;;;19.29;38.09
74228;BME280;62587;52.352;5.006;2022-12-18T06:53:46;102608.91;;;19.30;38.13
74228;BME280;62587;52.352;5.006;2022-12-18T06:56:12;102606.31;;;19.28;37.89
74228;BME280;62587;52.352;5.006;2022-12-18T06:58:38;102598.28;;;19.30;37.54
74228;BME280;62587;52.352;5.006;2022-12-18T07:01:06;102590.38;;;19.28;37.77
74228;BME280;62587;52.352;5.006;2022-12-18T07:03:31;102584.13;;;19.29;37.70
74228;BME280;62587;52.352;5.006;2022-12-18T07:05:57;102584.19;;;19.28;37.55
74228;BME280;62587;52.352;5.006;2022-12-18T07:08:22;102584.19;;;19.28;37.51
74228;BME280;62587;52.352;5.006;2022-12-18T07:10:48;102594.03;;;19.24;37.83
74228;BME280;62587;52.352;5.006;2022-12-18T07:13:16;102600.22;;;19.25;37.91
74228;BME280;62587;52.352;5.006;2022-12-18T07:15:43;102597.53;;;19.26;37.65
74228;BME280;62587;52.352;5.006;2022-12-18T07:18:08;102594.03;;;19.24;37.54
74228;BME280;62587;52.352;5.006;2022-12-18T07:20:34;102587.91;;;19.24;37.68
74228;BME280;62587;52.352;5.006;2022-12-18T07:23:02;102588.88;;;19.21;37.50
74228;BME280;62587;52.352;5.006;2022-12-18T07:25:27;102591.47;;;19.23;37.44
74228;BME280;62587;52.352;5.006;2022-12-18T07:27:54;102586.22;;;19.21;37.53
74228;BME280;62587;52.352;5.006;2022-12-18T07:30:19;102592.22;;;19.26;37.28
74228;BME280;62587;52.352;5.006;2022-12-18T07:32:50;102582.44;;;19.27;37.20
74228;BME280;62587;52.352;5.006;2022-12-18T07:35:16;102569.94;;;19.30;37.20
74228;BME280;62587;52.352;5.006;2022-12-18T07:37:41;102568.00;;;19.34;37.01
74228;BME280;62587;52.352;5.006;2022-12-18T07:40:07;102545.91;;;19.33;37.27
74228;BME280;62587;52.352;5.006;2022-12-18T07:42:33;102544.09;;;19.34;37.34
74228;BME280;62587;52.352;5.006;2022-12-18T07:45:00;102537.00;;;19.36;37.20
74228;BME280;62587;52.352;5.006;2022-12-18T07:47:27;102538.59;;;19.40;37.13
74228;BME280;62587;52.352;5.006;2022-12-18T07:49:52;102541.94;;;19.45;36.78
74228;BME280;62587;52.352;5.006;2022-12-18T07:52:17;102524.91;;;19.51;36.67
74228;BME280;62587;52.352;5.006;2022-12-18T07:54:43;102520.19;;;19.57;36.91
74228;BME280;62587;52.352;5.006;2022-12-18T07:57:08;102518.16;;;19.64;36.32
74228;BME280;62587;52.352;5.006;2022-12-18T07:59:34;102525.00;;;19.69;36.58
74228;BME280;62587;52.352;5.006;2022-12-18T08:02:00;102514.13;;;19.75;36.03
74228;BME280;62587;52.352;5.006;2022-12-18T08:04:25;102521.78;;;19.83;36.42
74228;BME280;62587;52.352;5.006;2022-12-18T08:06:51;102526.78;;;19.90;36.17
74228;BME280;62587;52.352;5.006;2022-12-18T08:09:16;102534.34;;;19.99;35.93
74228;BME280;62587;52.352;5.006;2022-12-18T08:11:42;102538.44;;;20.08;35.92
74228;BME280;62587;52.352;5.006;2022-12-18T08:14:08;102544.34;;;20.15;35.32
74228;BME280;62587;52.352;5.006;2022-12-18T08:16:33;102545.81;;;20.22;35.60
74228;BME280;62587;52.352;5.006;2022-12-18T08:18:58;102557.06;;;20.28;35.52
74228;BME280;62587;52.352;5.006;2022-12-18T08:21:27;102559.50;;;20.34;35.29
74228;BME280;62587;52.352;5.006;2022-12-18T08:23:54;102564.53;;;20.40;35.57
74228;BME280;62587;52.352;5.006;2022-12-18T08:26:21;102564.28;;;20.46;35.01
74228;BME280;62587;52.352;5.006;2022-12-18T08:28:47;102556.22;;;20.48;35.39
74228;BME280;62587;52.352;5.006;2022-12-18T08:31:12;102563.78;;;20.57;35.28
74228;BME280;62587;52.352;5.006;2022-12-18T08:33:38;102566.25;;;20.61;34.96
74228;BME280;62587;52.352;5.006;2022-12-18T08:36:04;102556.34;;;20.65;35.04
74228;BME280;62587;52.352;5.006;2022-12-18T08:38:31;102550.94;;;20.66;35.10
74228;BME280;62587;52.352;5.006;2022-12-18T08:41:05;102551.69;;;20.70;35.31
74228;BME280;62587;52.352;5.006;2022-12-18T08:43:31;102546.22;;;20.73;34.62
74228;BME280;62587;52.352;5.006;2022-12-18T08:46:16;102551.47;;;20.75;34.75
74228;BME280;62587;52.352;5.006;2022-12-18T08:48:42;102561.16;;;20.76;34.94
74228;BME280;62587;52.352;5.006;2022-12-18T08:51:07;102552.34;;;20.75;34.87
74228;BME280;62587;52.352;5.006;2022-12-18T08:53:35;102551.47;;;20.75;34.71
74228;BME280;62587;52.352;5.006;2022-12-18T08:56:00;102547.84;;;20.76;34.76
74228;BME280;62587;52.352;5.006;2022-12-18T08:58:26;102538.16;;;20.75;35.00
74228;BME280;62587;52.352;5.006;2022-12-18T09:00:51;102533.69;;;20.75;34.82
74228;BME280;62587;52.352;5.006;2022-12-18T09:03:18;102523.97;;;20.74;34.70
74228;BME280;62587;52.352;5.006;2022-12-18T09:05:45;102524.06;;;20.73;34.83
74228;BME280;62587;52.352;5.006;2022-12-18T09:08:11;102532.91;;;20.73;34.87
74228;BME280;62587;52.352;5.006;2022-12-18T09:10:44;102538.28;;;20.71;34.93
74228;BME280;62587;52.352;5.006;2022-12-18T09:13:11;102540.06;;;20.71;35.06
74228;BME280;62587;52.352;5.006;2022-12-18T09:15:44;102541.06;;;20.68;34.65
74228;BME280;62587;52.352;5.006;2022-12-18T09:18:11;102534.91;;;20.68;34.97
74228;BME280;62587;52.352;5.006;2022-12-18T09:20:37;102533.97;;;20.69;34.98
74228;BME280;62587;52.352;5.006;2022-12-18T09:23:03;102531.44;;;20.66;34.82
74228;BME280;62587;52.352;5.006;2022-12-18T09:25:29;102535.91;;;20.65;34.73
74228;BME280;62587;52.352;5.006;2022-12-18T09:27:59;102538.63;;;20.64;34.82
74228;BME280;62587;52.352;5.006;2022-12-18T09:30:25;102536.91;;;20.63;34.84
74228;BME280;62587;52.352;5.006;2022-12-18T09:32:51;102534.97;;;20.66;34.76
74228;BME280;62587;52.352;5.006;2022-12-18T09:35:19;102520.66;;;20.69;34.72
74228;BME280;62587;52.352;5.006;2022-12-18T09:37:44;102519.75;;;20.70;34.75
74228;BME280;62587;52.352;5.006;2022-12-18T09:40:14;102514.41;;;20.70;34.81
74228;BME280;62587;52.352;5.006;2022-12-18T09:42:46;102509.00;;;20.71;34.79
74228;BME280;62587;52.352;5.006;2022-12-18T09:45:14;102497.56;;;20.69;34.75
74228;BME280;62587;52.352;5.006;2022-12-18T09:47:41;102503.81;;;20.68;34.91
74228;BME280;62587;52.352;5.006;2022-12-18T09:50:35;102495.00;;;20.68;35.01
74228;BME280;62587;52.352;5.006;2022-12-18T09:53:06;102496.78;;;20.67;34.86
74228;BME280;62587;52.352;5.006;2022-12-18T09:55:38;102493.25;;;20.67;34.66
74228;BME280;62587;52.352;5.006;2022-12-18T09:58:26;102494.03;;;20.69;34.71
74228;BME280;62587;52.352;5.006;2022-12-18T10:00:54;102485.91;;;20.72;34.69
74228;BME280;62587;52.352;5.006;2022-12-18T10:03:19;102472.41;;;20.77;34.54
74228;BME280;62587;52.352;5.006;2022-12-18T10:05:54;102486.44;;;20.80;34.79
74228;BME280;62587;52.352;5.006;2022-12-18T10:08:37;102500.47;;;20.84;34.54
74228;BME280;62587;52.352;5.006;2022-12-18T10:16:46;102505.56;;;20.88;34.46
74228;BME280;62587;52.352;5.006;2022-12-18T10:19:25;102499.47;;;20.86;34.76
74228;BME280;62587;52.352;5.006;2022-12-18T10:27:18;102484.34;;;20.87;34.72
74228;BME280;62587;52.352;5.006;2022-12-18T10:29:46;102495.91;;;20.86;34.60
74228;BME280;62587;52.352;5.006;2022-12-18T10:32:21;102491.38;;;20.88;34.41
74228;BME280;62587;52.352;5.006;2022-12-18T10:34:48;102486.88;;;20.90;34.56
74228;BME280;62587;52.352;5.006;2022-12-18T10:37:23;102492.81;;;20.95;34.63
74228;BME280;62587;52.352;5.006;2022-12-18T10:40:08;102483.69;;;21.00;34.34
74228;BME280;62587;52.352;5.006;2022-12-18T10:42:34;102482.69;;;21.03;34.33
74228;BME280;62587;52.352;5.006;2022-12-18T10:45:15;102474.59;;;21.06;34.30
74228;BME280;62587;52.352;5.006;2022-12-18T10:47:48;102477.16;;;21.07;34.12
74228;BME280;62587;52.352;5.006;2022-12-18T10:50:39;102468.25;;;21.08;33.95
74228;BME280;62587;52.352;5.006;2022-12-18T10:53:05;102462.78;;;21.11;34.05
74228;BME280;62587;52.352;5.006;2022-12-18T10:55:35;102455.09;;;21.05;34.22
74228;BME280;62587;52.352;5.006;2022-12-18T10:58:31;102442.75;;;21.03;34.45
74228;BME280;62587;52.352;5.006;2022-12-18T11:01:08;102432.09;;;21.03;34.02
74228;BME280;62587;52.352;5.006;2022-12-18T11:03:36;102430.44;;;21.00;34.51
74228;BME280;62587;52.352;5.006;2022-12-18T11:06:13;102425.09;;;21.00;34.33
74228;BME280;62587;52.352;5.006;2022-12-18T11:08:40;102428.66;;;21.01;34.11
74228;BME280;62587;52.352;5.006;2022-12-18T11:11:15;102438.28;;;21.03;34.40
74228;BME280;62587;52.352;5.006;2022-12-18T11:13:55;102437.31;;;21.06;34.48
74228;BME280;62587;52.352;5.006;2022-12-18T11:16:23;102428.44;;;21.05;34.24
74228;BME280;62587;52.352;5.006;2022-12-18T11:18:48;102420.47;;;21.05;34.34
74228;BME280;62587;52.352;5.006;2022-12-18T11:21:14;102416.25;;;21.00;34.38
74228;BME280;62587;52.352;5.006;2022-12-18T11:23:53;102422.41;;;21.02;34.66
74228;BME280;62587;52.352;5.006;2022-12-18T11:26:19;102423.22;;;21.02;34.68
74228;BME280;62587;52.352;5.006;2022-12-18T11:29:08;102424.19;;;21.01;34.63
74228;BME280;62587;52.352;5.006;2022-12-18T11:31:34;102425.09;;;21.00;34.57
74228;BME280;62587;52.352;5.006;2022-12-18T11:34:32;102426.75;;;21.03;34.34
74228;BME280;62587;52.352;5.006;2022-12-18T11:36:58;102416.47;;;20.95;34.29
74228;BME280;62587;52.352;5.006;2022-12-18T11:39:32;102412.59;;;20.84;34.41
74228;BME280;62587;52.352;5.006;2022-12-18T11:42:20;102401.53;;;20.74;34.41
74228;BME280;62587;52.352;5.006;2022-12-18T11:47:44;102397.75;;;20.61;34.05
74228;BME280;62587;52.352;5.006;2022-12-18T11:50:23;102395.22;;;20.58;33.80
74228;BME280;62587;52.352;5.006;2022-12-18T11:52:49;102376.72;;;20.55;33.78
74228;BME280;62587;52.352;5.006;2022-12-18T11:55:19;102368.81;;;20.53;33.81
74228;BME280;62587;52.352;5.006;2022-12-18T11:58:03;102356.53;;;20.51;33.97
74228;BME280;62587;52.352;5.006;2022-12-18T12:00:31;102350.41;;;20.49;33.92
74228;BME280;62587;52.352;5.006;2022-12-18T12:03:24;102339.78;;;20.49;33.49
74228;BME280;62587;52.352;5.006;2022-12-18T12:06:10;102336.16;;;20.50;33.61
74228;BME280;62587;52.352;5.006;2022-12-18T12:08:57;102338.78;;;20.51;33.35
74228;BME280;62587;52.352;5.006;2022-12-18T12:14:14;102334.00;;;20.58;33.24
74228;BME280;62587;52.352;5.006;2022-12-18T12:16:58;102337.47;;;20.60;33.39
74228;BME280;62587;52.352;5.006;2022-12-18T12:25:40;102324.16;;;20.60;33.10
74228;BME280;62587;52.352;5.006;2022-12-18T12:39:30;102310.56;;;20.47;33.61
74228;BME280;62587;52.352;5.006;2022-12-18T12:41:59;102316.03;;;20.44;33.46
74228;BME280;62587;52.352;5.006;2022-12-18T12:44:48;102303.94;;;20.37;33.75
74228;BME280;62587;52.352;5.006;2022-12-18T12:47:25;102292.59;;;20.34;33.96
74228;BME280;62587;52.352;5.006;2022-12-18T12:49:52;102288.28;;;20.31;33.60
74228;BME280;62587;52.352;5.006;2022-12-18T12:52:33;102296.38;;;20.30;33.62
74228;BME280;62587;52.352;5.006;2022-12-18T12:55:02;102302.69;;;20.27;34.09
74228;BME280;62587;52.352;5.006;2022-12-18T12:57:38;102300.16;;;20.24;34.13
74228;BME280;62587;52.352;5.006;2022-12-18T13:00:09;102296.63;;;20.24;34.04
74228;BME280;62587;52.352;5.006;2022-12-18T13:02:45;102296.72;;;20.21;34.22
74228;BME280;62587;52.352;5.006;2022-12-18T13:12:58;102278.41;;;20.15;34.25
74228;BME280;62587;52.352;5.006;2022-12-18T13:15:37;102287.31;;;20.14;34.20
74228;BME280;62587;52.352;5.006;2022-12-18T13:20:38;102275.09;;;20.30;34.24
74228;BME280;62587;52.352;5.006;2022-12-18T13:25:55;102263.22;;;20.37;33.80
74228;BME280;62587;52.352;5.006;2022-12-18T13:28:49;102259.59;;;20.38;34.59
74228;BME280;62587;52.352;5.006;2022-12-18T13:31:08;102257.03;;;20.36;34.04
74228;BME280;62587;52.352;5.006;2022-12-18T13:38:38;102225.59;;;20.26;33.80
74228;BME280;62587;52.352;5.006;2022-12-18T13:43:48;102205.66;;;20.16;34.30
74228;BME280;62587;52.352;5.006;2022-12-18T13:49:00;102196.34;;;20.26;34.31
74228;BME280;62587;52.352;5.006;2022-12-18T13:51:27;102188.22;;;20.29;34.28
74228;BME280;62587;52.352;5.006;2022-12-18T13:53:57;102199.66;;;20.31;33.56
74228;BME280;62587;52.352;5.006;2022-12-18T13:56:26;102208.06;;;20.22;33.97
74228;BME280;62587;52.352;5.006;2022-12-18T13:59:24;102207.28;;;20.20;33.95
74228;BME280;62587;52.352;5.006;2022-12-18T14:01:54;102205.41;;;20.22;34.11
74228;BME280;62587;52.352;5.006;2022-12-18T14:07:17;102193.78;;;20.24;33.87
74228;BME280;62587;52.352;5.006;2022-12-18T14:09:46;102190.09;;;20.27;33.60
74228;BME280;62587;52.352;5.006;2022-12-18T14:12:27;102185.47;;;20.30;33.43
74228;BME280;62587;52.352;5.006;2022-12-18T14:15:24;102176.13;;;20.40;32.80